Time;durP1;ratioP1;P1;durP2;ratioP2;P2;SDS_P1;SDS_P2;PMS_P1;PMS_P2;Temp;Humidity;BMP_temperature;BMP_pressure;BME280_temperature;BME280_humidity;BME280_pressure;Samples;Min_cycle;Max_cycle;Signal;HPM_P1;HPM_P2
2022/01/20 00:00:33;;;;;;;;;;;21.30;40.00;;;;;;6337022;28;20012;-43
2022/01/20 00:03:36;;;;;;;;;;;21.60;40.20;;;;;;6333958;27;20038;-43
2022/01/20 00:26:14;;;;;;;;;;;21.20;39.90;;;;;;6313745;28;19931;-43
2022/01/20 00:29:24;;;;;;;;;;;21.10;40.10;;;;;;6331617;28;19938;-42
2022/01/20 00:32:32;;;;;;;;;;;21.50;39.90;;;;;;6331640;28;20357;-44
2022/01/20 00:37:15;;;;;;;;;;;21.20;40.00;;;;;;6325597;27;19938;-42
2022/01/20 00:38:56;;;;;;;;;;;21.60;40.20;;;;;;6322425;28;19934;-44
2022/01/20 00:41:58;;;;;;;;;;;21.80;40.50;;;;;;6337957;28;19963;-44
2022/01/20 00:44:59;;;;;;;;;;;21.20;40.20;;;;;;6336222;28;19927;-43
2022/01/20 00:48:01;;;;;;;;;;;21.10;40.10;;;;;;6335576;28;19931;-45
2022/01/20 00:51:03;;;;;;;;;;;21.00;40.00;;;;;;6331863;28;19996;-44
2022/01/20 00:54:04;;;;;;;;;;;21.70;40.50;;;;;;6323641;27;19952;-41
2022/01/20 00:57:06;;;;;;;;;;;21.10;40.10;;;;;;6329089;28;19939;-41
2022/01/20 01:00:09;;;;;;;;;;;21.40;40.40;;;;;;6333407;28;19934;-42
2022/01/20 01:03:14;;;;;;;;;;;21.00;40.10;;;;;;6332939;28;20427;-44
2022/01/20 01:06:28;;;;;;;;;;;21.40;40.40;;;;;;6330153;28;19935;-40
2022/01/20 01:09:29;;;;;;;;;;;21.40;40.40;;;;;;6337517;27;20008;-43
2022/01/20 01:12:37;;;;;;;;;;;21.30;40.40;;;;;;6341628;28;19932;-42
2022/01/20 01:15:43;;;;;;;;;;;21.10;40.30;;;;;;6340902;28;20784;-44
2022/01/20 01:22:14;;;;;;;;;;;21.20;40.40;;;;;;6339869;28;19932;-41
2022/01/20 01:25:15;;;;;;;;;;;21.30;40.40;;;;;;6339442;28;19982;-43
2022/01/20 01:28:19;;;;;;;;;;;21.10;40.20;;;;;;6304630;28;19931;-46
2022/01/20 01:34:39;;;;;;;;;;;21.00;40.10;;;;;;6339575;28;20004;-41
2022/01/20 01:40:57;;;;;;;;;;;21.20;40.30;;;;;;6307453;27;19939;-45
2022/01/20 01:44:04;;;;;;;;;;;21.00;40.40;;;;;;6339019;28;20779;-41
2022/01/20 01:47:06;;;;;;;;;;;21.30;40.40;;;;;;6316285;28;20545;-45
2022/01/20 01:50:09;;;;;;;;;;;20.90;40.30;;;;;;6333823;28;19927;-41
2022/01/20 01:53:11;;;;;;;;;;;21.20;40.40;;;;;;6331345;27;19927;-45
2022/01/20 01:56:12;;;;;;;;;;;21.60;40.70;;;;;;6332323;28;19935;-45
2022/01/20 01:59:14;;;;;;;;;;;21.30;40.50;;;;;;6333510;28;20784;-41
2022/01/20 02:02:36;;;;;;;;;;;20.90;40.30;;;;;;6337562;28;19934;-44
2022/01/20 02:05:51;;;;;;;;;;;21.10;40.30;;;;;;6318265;28;20713;-43
2022/01/20 02:09:02;;;;;;;;;;;21.40;40.40;;;;;;6339587;28;19993;-40
2022/01/20 02:18:43;;;;;;;;;;;21.00;40.30;;;;;;6323223;28;19976;-41
2022/01/20 02:22:01;;;;;;;;;;;21.20;40.60;;;;;;6330706;28;19932;-41
2022/01/20 02:25:06;;;;;;;;;;;20.90;40.40;;;;;;6329244;28;20354;-41
2022/01/20 02:28:09;;;;;;;;;;;21.30;40.20;;;;;;6336917;28;19927;-40
2022/01/20 02:31:11;;;;;;;;;;;21.10;40.40;;;;;;6331929;28;20107;-41
2022/01/20 02:34:13;;;;;;;;;;;20.90;40.50;;;;;;6332694;28;19938;-40
2022/01/20 02:37:16;;;;;;;;;;;21.20;40.50;;;;;;6334517;28;20617;-40
2022/01/20 02:46:45;;;;;;;;;;;20.80;40.50;;;;;;6331465;28;19934;-40
2022/01/20 02:49:48;;;;;;;;;;;21.30;40.70;;;;;;6330788;28;19936;-40
2022/01/20 02:52:50;;;;;;;;;;;20.90;40.50;;;;;;6328079;27;19974;-41
2022/01/20 02:55:52;;;;;;;;;;;21.20;40.60;;;;;;6330365;28;19935;-41
2022/01/20 02:58:53;;;;;;;;;;;21.30;40.70;;;;;;6332390;27;19962;-39
2022/01/20 03:01:55;;;;;;;;;;;21.20;40.60;;;;;;6331269;28;19962;-42
2022/01/20 03:04:56;;;;;;;;;;;20.90;40.50;;;;;;6318845;28;20361;-40
2022/01/20 03:08:09;;;;;;;;;;;21.00;40.50;;;;;;6320929;28;19942;-40
2022/01/20 03:11:10;;;;;;;;;;;20.80;40.40;;;;;;6331220;28;19979;-42
2022/01/20 03:14:14;;;;;;;;;;;20.80;40.50;;;;;;6331800;28;19928;-42
2022/01/20 03:17:17;;;;;;;;;;;20.70;40.50;;;;;;6330081;28;19931;-40
2022/01/20 03:20:18;;;;;;;;;;;20.90;40.60;;;;;;6325494;28;20491;-40
2022/01/20 03:23:20;;;;;;;;;;;20.60;40.40;;;;;;6330170;27;20573;-40
2022/01/20 03:26:22;;;;;;;;;;;20.80;40.50;;;;;;6325940;28;19927;-40
2022/01/20 03:29:24;;;;;;;;;;;21.20;40.70;;;;;;6304397;27;19932;-40
2022/01/20 03:32:25;;;;;;;;;;;21.10;40.30;;;;;;6333948;28;19994;-41
2022/01/20 03:35:27;;;;;;;;;;;21.20;41.40;;;;;;6338799;28;19970;-43
2022/01/20 03:38:49;;;;;;;;;;;20.70;40.40;;;;;;6339921;28;19966;-42
2022/01/20 03:41:51;;;;;;;;;;;20.80;40.60;;;;;;6330285;27;20034;-41
2022/01/20 03:44:58;;;;;;;;;;;20.90;40.70;;;;;;6330322;28;20682;-40
2022/01/20 03:48:07;;;;;;;;;;;20.80;40.50;;;;;;6311920;28;19938;-40
2022/01/20 03:51:08;;;;;;;;;;;21.10;40.80;;;;;;6329743;28;20725;-40
2022/01/20 03:54:10;;;;;;;;;;;20.60;40.50;;;;;;6327524;28;20008;-41
2022/01/20 03:57:32;;;;;;;;;;;20.70;40.50;;;;;;6330528;27;19943;-40
2022/01/20 04:00:45;;;;;;;;;;;21.20;40.80;;;;;;6330320;28;20344;-40
2022/01/20 04:04:06;;;;;;;;;;;20.50;40.40;;;;;;6328909;28;20478;-40
2022/01/20 04:07:17;;;;;;;;;;;20.70;40.60;;;;;;6330273;28;20321;-40
2022/01/20 04:10:19;;;;;;;;;;;20.80;40.80;;;;;;6330230;27;19927;-42
2022/01/20 04:13:21;;;;;;;;;;;20.60;40.50;;;;;;6331682;28;20291;-40
2022/01/20 04:16:30;;;;;;;;;;;20.70;40.70;;;;;;6328058;28;21256;-42
2022/01/20 04:19:32;;;;;;;;;;;20.70;40.60;;;;;;6333785;27;20250;-41
2022/01/20 04:22:34;;;;;;;;;;;20.60;40.60;;;;;;6343140;28;19938;-41
2022/01/20 04:25:36;;;;;;;;;;;20.70;40.60;;;;;;6343362;28;19977;-45
2022/01/20 04:28:38;;;;;;;;;;;20.90;40.80;;;;;;6343062;28;19971;-41
2022/01/20 04:31:40;;;;;;;;;;;21.10;40.90;;;;;;6340848;28;20826;-43
2022/01/20 04:34:41;;;;;;;;;;;20.70;41.20;;;;;;6336931;28;20081;-40
2022/01/20 04:37:42;;;;;;;;;;;20.70;40.80;;;;;;6332016;28;20029;-40
2022/01/20 04:40:45;;;;;;;;;;;21.00;41.00;;;;;;6333902;28;20049;-42
2022/01/20 04:43:46;;;;;;;;;;;20.50;40.50;;;;;;6332703;28;20054;-41
2022/01/20 04:46:55;;;;;;;;;;;21.00;40.90;;;;;;6332442;28;20095;-40
2022/01/20 04:59:43;;;;;;;;;;;20.70;40.60;;;;;;6327196;28;19928;-41
2022/01/20 05:02:45;;;;;;;;;;;21.10;40.80;;;;;;6328842;28;19928;-40
2022/01/20 05:05:50;;;;;;;;;;;20.90;40.70;;;;;;6321450;28;19940;-40
2022/01/20 05:08:54;;;;;;;;;;;20.90;40.90;;;;;;6326009;28;20029;-39
2022/01/20 05:12:00;;;;;;;;;;;20.80;40.80;;;;;;6330122;28;20301;-41
2022/01/20 05:15:02;;;;;;;;;;;20.50;40.60;;;;;;6333174;28;20018;-41
2022/01/20 05:18:04;;;;;;;;;;;20.80;40.90;;;;;;6334159;27;19975;-41
2022/01/20 05:21:06;;;;;;;;;;;20.90;40.80;;;;;;6334748;28;21592;-41
2022/01/20 05:24:09;;;;;;;;;;;20.60;40.70;;;;;;6336743;27;19927;-42
2022/01/20 05:27:11;;;;;;;;;;;20.60;40.80;;;;;;6331979;28;20014;-43
2022/01/20 05:30:12;;;;;;;;;;;20.50;40.80;;;;;;6327165;27;19928;-43
2022/01/20 05:33:24;;;;;;;;;;;20.60;40.60;;;;;;6334571;28;19938;-44
2022/01/20 05:36:25;;;;;;;;;;;20.50;40.70;;;;;;6334570;27;19935;-45
2022/01/20 05:39:27;;;;;;;;;;;20.50;40.80;;;;;;6337924;28;20040;-42
2022/01/20 05:42:29;;;;;;;;;;;20.80;40.90;;;;;;6336245;28;20811;-45
2022/01/20 05:45:39;;;;;;;;;;;20.70;40.80;;;;;;6334462;28;19939;-43
2022/01/20 05:48:47;;;;;;;;;;;20.50;40.90;;;;;;6335198;28;20128;-42
2022/01/20 05:52:06;;;;;;;;;;;20.30;40.70;;;;;;6334399;28;19931;-46
2022/01/20 05:55:08;;;;;;;;;;;20.30;40.60;;;;;;6331377;28;19958;-40
2022/01/20 05:58:11;;;;;;;;;;;20.40;40.50;;;;;;6331644;28;20004;-42
2022/01/20 06:01:12;;;;;;;;;;;20.50;40.80;;;;;;6328803;28;19927;-43
2022/01/20 06:04:14;;;;;;;;;;;20.80;40.90;;;;;;6327638;28;19938;-42
2022/01/20 06:07:18;;;;;;;;;;;20.90;40.80;;;;;;6327480;28;19923;-43
2022/01/20 06:10:19;;;;;;;;;;;20.40;40.80;;;;;;6328707;27;19962;-46
2022/01/20 06:13:22;;;;;;;;;;;20.60;40.80;;;;;;6330773;28;20004;-45
2022/01/20 06:16:24;;;;;;;;;;;20.40;40.70;;;;;;6311141;28;20952;-44
2022/01/20 06:19:25;;;;;;;;;;;20.80;40.80;;;;;;6315510;28;19932;-46
2022/01/20 06:22:27;;;;;;;;;;;20.50;40.70;;;;;;6325959;28;20008;-45
2022/01/20 06:25:28;;;;;;;;;;;20.80;41.00;;;;;;6328903;28;19924;-41
2022/01/20 06:28:30;;;;;;;;;;;20.50;40.60;;;;;;6330431;28;19927;-43
2022/01/20 06:31:32;;;;;;;;;;;20.80;40.80;;;;;;6329206;28;19931;-43
2022/01/20 06:34:34;;;;;;;;;;;20.90;40.50;;;;;;6327056;27;20004;-43
2022/01/20 06:37:36;;;;;;;;;;;20.70;40.30;;;;;;6327869;28;20806;-45
2022/01/20 06:40:38;;;;;;;;;;;20.50;40.60;;;;;;6329108;28;19931;-43
2022/01/20 06:43:40;;;;;;;;;;;20.50;40.70;;;;;;6325723;27;20827;-45
2022/01/20 06:46:42;;;;;;;;;;;20.50;40.50;;;;;;6328088;27;19932;-44
2022/01/20 06:49:49;;;;;;;;;;;20.50;40.60;;;;;;6322375;28;19930;-43
2022/01/20 06:52:50;;;;;;;;;;;20.50;40.50;;;;;;6315837;27;20001;-43
2022/01/20 06:55:52;;;;;;;;;;;20.50;40.40;;;;;;6317903;28;21033;-44
2022/01/20 06:58:54;;;;;;;;;;;20.60;40.40;;;;;;6323706;28;20908;-42
2022/01/20 07:01:57;;;;;;;;;;;20.70;40.40;;;;;;6316768;27;20005;-46
2022/01/20 07:05:02;;;;;;;;;;;21.00;40.30;;;;;;6317316;28;19923;-41
2022/01/20 07:08:04;;;;;;;;;;;20.70;40.20;;;;;;6319226;28;19931;-44
2022/01/20 07:11:05;;;;;;;;;;;20.70;40.30;;;;;;6318641;28;21042;-42
2022/01/20 07:14:08;;;;;;;;;;;20.60;40.10;;;;;;6308158;28;19932;-43
2022/01/20 07:17:09;;;;;;;;;;;20.60;40.10;;;;;;6290599;27;19935;-42
2022/01/20 07:20:15;;;;;;;;;;;20.80;40.20;;;;;;6306705;27;19933;-45
2022/01/20 07:23:27;;;;;;;;;;;20.80;40.00;;;;;;6316308;27;19927;-43
2022/01/20 07:26:33;;;;;;;;;;;20.70;40.00;;;;;;6313937;27;21011;-43
2022/01/20 07:29:43;;;;;;;;;;;20.80;39.90;;;;;;6283296;27;21497;-43
2022/01/20 07:32:44;;;;;;;;;;;20.90;39.80;;;;;;6297128;27;19938;-42
2022/01/20 07:35:52;;;;;;;;;;;21.30;40.20;;;;;;6292178;27;19939;-44
2022/01/20 07:38:56;;;;;;;;;;;20.90;39.70;;;;;;6292534;27;22074;-46
2022/01/20 07:41:57;;;;;;;;;;;20.80;39.70;;;;;;6299129;27;19931;-45
2022/01/20 07:45:17;;;;;;;;;;;20.90;39.80;;;;;;6294344;27;19932;-43
2022/01/20 07:48:26;;;;;;;;;;;20.80;39.60;;;;;;6279436;28;19931;-47
2022/01/20 07:51:35;;;;;;;;;;;21.40;39.90;;;;;;6260848;27;19931;-42
2022/01/20 07:54:39;;;;;;;;;;;21.00;39.60;;;;;;6262767;27;20013;-43
2022/01/20 07:57:41;;;;;;;;;;;21.70;40.00;;;;;;6259009;27;19935;-42
2022/01/20 08:00:44;;;;;;;;;;;21.40;39.80;;;;;;6245177;27;19932;-42
2022/01/20 08:03:46;;;;;;;;;;;21.10;39.50;;;;;;6229213;27;19931;-43
2022/01/20 08:06:53;;;;;;;;;;;21.20;39.50;;;;;;6199837;27;19932;-42
2022/01/20 08:09:59;;;;;;;;;;;21.30;39.60;;;;;;6197911;27;19931;-43
2022/01/20 08:13:01;;;;;;;;;;;21.20;39.50;;;;;;6227236;27;29752;-43
2022/01/20 08:16:04;;;;;;;;;;;21.00;39.10;;;;;;6225452;27;23300;-42
2022/01/20 08:19:06;;;;;;;;;;;21.90;39.80;;;;;;6219723;27;19931;-43
2022/01/20 08:22:07;;;;;;;;;;;21.70;39.60;;;;;;6219000;27;20024;-46
2022/01/20 08:25:29;;;;;;;;;;;21.40;39.50;;;;;;6193366;27;19931;-46
2022/01/20 08:28:31;;;;;;;;;;;21.00;39.10;;;;;;6196379;27;20016;-42
2022/01/20 08:31:34;;;;;;;;;;;21.70;39.70;;;;;;6217231;27;19932;-44
2022/01/20 08:34:48;;;;;;;;;;;21.40;39.30;;;;;;6206130;27;19931;-41
2022/01/20 08:38:08;;;;;;;;;;;21.30;39.30;;;;;;6220259;27;21124;-42
2022/01/20 08:41:12;;;;;;;;;;;21.80;39.50;;;;;;6215243;27;19932;-47
2022/01/20 08:44:13;;;;;;;;;;;21.60;40.00;;;;;;6206721;27;20799;-41
2022/01/20 08:47:17;;;;;;;;;;;21.50;39.20;;;;;;6206573;27;19984;-40
2022/01/20 08:50:22;;;;;;;;;;;23.00;39.80;;;;;;6203444;27;20065;-42
2022/01/20 08:53:25;;;;;;;;;;;21.80;39.20;;;;;;6183864;27;19976;-44
2022/01/20 08:56:26;;;;;;;;;;;21.70;39.20;;;;;;6201686;27;19938;-41
2022/01/20 08:59:29;;;;;;;;;;;21.80;39.30;;;;;;6193782;27;19931;-42
2022/01/20 09:02:31;;;;;;;;;;;21.50;39.00;;;;;;6192464;27;19942;-47
2022/01/20 09:05:32;;;;;;;;;;;21.70;39.10;;;;;;6227451;27;19932;-41
2022/01/20 09:08:41;;;;;;;;;;;21.50;38.90;;;;;;6219064;27;19931;-43
2022/01/20 09:12:02;;;;;;;;;;;21.80;39.00;;;;;;6223519;27;19932;-41
2022/01/20 09:18:26;;;;;;;;;;;22.00;39.00;;;;;;6199257;27;19931;-42
2022/01/20 09:21:28;;;;;;;;;;;21.90;38.90;;;;;;6216184;27;19932;-43
2022/01/20 09:24:33;;;;;;;;;;;22.00;39.00;;;;;;6204362;27;19938;-43
2022/01/20 09:27:36;;;;;;;;;;;21.70;38.80;;;;;;6219759;27;19965;-42
2022/01/20 09:30:40;;;;;;;;;;;22.20;39.00;;;;;;6208981;27;20001;-44
2022/01/20 09:33:44;;;;;;;;;;;22.40;39.10;;;;;;6206568;27;19931;-42
2022/01/20 09:36:45;;;;;;;;;;;22.00;38.70;;;;;;6199870;27;19952;-43
2022/01/20 09:39:48;;;;;;;;;;;21.40;38.50;;;;;;6195811;27;21405;-42
2022/01/20 09:43:12;;;;;;;;;;;22.10;38.80;;;;;;6212836;27;20053;-44
2022/01/20 09:46:13;;;;;;;;;;;22.20;38.70;;;;;;6227531;27;20036;-42
2022/01/20 09:49:19;;;;;;;;;;;22.30;38.70;;;;;;6221875;27;23991;-46
2022/01/20 09:52:22;;;;;;;;;;;21.90;38.50;;;;;;6205199;27;19937;-46
2022/01/20 09:55:32;;;;;;;;;;;21.80;38.40;;;;;;6217551;27;19989;-47
2022/01/20 09:58:34;;;;;;;;;;;22.30;38.60;;;;;;6207916;27;21414;-43
2022/01/20 10:01:36;;;;;;;;;;;22.20;38.50;;;;;;6220946;27;19931;-43
2022/01/20 10:04:41;;;;;;;;;;;21.90;38.30;;;;;;6226647;27;19939;-42
2022/01/20 10:07:59;;;;;;;;;;;21.90;38.30;;;;;;6216532;27;19931;-42
2022/01/20 10:11:09;;;;;;;;;;;22.10;38.30;;;;;;6225111;27;19936;-42
2022/01/20 10:14:25;;;;;;;;;;;22.40;38.50;;;;;;6218067;27;19937;-41
2022/01/20 10:17:34;;;;;;;;;;;22.10;38.30;;;;;;6210864;27;20035;-40
2022/01/20 10:20:48;;;;;;;;;;;22.40;38.40;;;;;;6232099;27;19964;-44
2022/01/20 10:24:07;;;;;;;;;;;22.10;38.30;;;;;;6235834;27;21631;-42
2022/01/20 10:27:16;;;;;;;;;;;22.40;38.40;;;;;;6229828;27;19939;-44
2022/01/20 10:30:25;;;;;;;;;;;22.40;38.40;;;;;;6236894;27;19938;-41
2022/01/20 10:33:38;;;;;;;;;;;22.40;38.30;;;;;;6233220;27;19963;-43
2022/01/20 10:36:50;;;;;;;;;;;22.20;38.10;;;;;;6242594;27;20020;-43
2022/01/20 10:40:05;;;;;;;;;;;22.40;38.30;;;;;;6242075;27;19981;-41
2022/01/20 10:43:07;;;;;;;;;;;22.40;38.30;;;;;;6238896;27;19931;-40
2022/01/20 10:46:11;;;;;;;;;;;22.00;38.10;;;;;;6240610;27;19931;-50
2022/01/20 10:49:12;;;;;;;;;;;22.40;38.90;;;;;;6228354;27;20038;-41
2022/01/20 10:52:22;;;;;;;;;;;22.10;38.10;;;;;;6252783;27;19931;-43
2022/01/20 10:55:25;;;;;;;;;;;22.10;38.00;;;;;;6254191;27;21044;-44
2022/01/20 10:58:33;;;;;;;;;;;22.60;38.30;;;;;;6237673;27;22246;-41
2022/01/20 11:01:37;;;;;;;;;;;22.10;38.00;;;;;;6247811;27;20852;-44
2022/01/20 11:04:39;;;;;;;;;;;22.60;38.30;;;;;;6250787;27;19987;-41
2022/01/20 11:07:43;;;;;;;;;;;22.40;38.10;;;;;;6226747;27;19939;-44
2022/01/20 11:10:46;;;;;;;;;;;22.50;38.10;;;;;;6250844;27;19931;-42
2022/01/20 11:14:00;;;;;;;;;;;22.50;38.10;;;;;;6246381;27;19994;-45
2022/01/20 11:17:03;;;;;;;;;;;22.20;38.00;;;;;;6252448;27;19975;-40
2022/01/20 11:20:05;;;;;;;;;;;22.20;37.90;;;;;;6252736;27;19938;-46
2022/01/20 11:23:07;;;;;;;;;;;22.30;38.10;;;;;;6260727;27;20920;-44
2022/01/20 11:26:19;;;;;;;;;;;22.30;38.00;;;;;;6260439;27;20069;-43
2022/01/20 11:29:41;;;;;;;;;;;22.60;38.30;;;;;;6247170;27;19931;-43
2022/01/20 11:33:04;;;;;;;;;;;22.40;38.10;;;;;;6247549;27;19939;-43
2022/01/20 11:36:20;;;;;;;;;;;22.70;38.20;;;;;;6234014;27;19939;-43
2022/01/20 11:39:42;;;;;;;;;;;22.20;38.00;;;;;;6244554;27;20633;-43
2022/01/20 11:42:55;;;;;;;;;;;22.50;38.20;;;;;;6276747;27;20594;-43
2022/01/20 11:46:02;;;;;;;;;;;22.10;37.90;;;;;;6275322;27;19932;-47
2022/01/20 11:49:06;;;;;;;;;;;22.20;38.00;;;;;;6261467;27;19946;-41
2022/01/20 11:52:08;;;;;;;;;;;22.70;38.30;;;;;;6281539;27;21096;-44
2022/01/20 11:55:10;;;;;;;;;;;22.60;38.20;;;;;;6278739;27;19937;-47
2022/01/20 11:58:13;;;;;;;;;;;22.10;37.90;;;;;;6286121;27;20028;-41
2022/01/20 12:01:14;;;;;;;;;;;22.50;38.10;;;;;;6270394;27;19931;-44
2022/01/20 12:04:16;;;;;;;;;;;22.10;38.00;;;;;;6266320;27;19932;-43
2022/01/20 12:07:25;;;;;;;;;;;22.60;38.20;;;;;;6283443;28;19932;-41
2022/01/20 12:10:36;;;;;;;;;;;22.70;38.10;;;;;;6286350;27;19931;-44
2022/01/20 12:13:45;;;;;;;;;;;22.40;38.10;;;;;;6288015;27;19931;-43
2022/01/20 12:16:46;;;;;;;;;;;23.00;38.30;;;;;;6283484;27;20978;-41
2022/01/20 12:19:54;;;;;;;;;;;22.60;38.10;;;;;;6281726;27;19931;-42
2022/01/20 12:22:57;;;;;;;;;;;22.80;38.10;;;;;;6262917;27;19937;-41
2022/01/20 12:26:02;;;;;;;;;;;22.50;38.10;;;;;;6253172;27;19965;-42
2022/01/20 12:29:05;;;;;;;;;;;22.40;37.90;;;;;;6269328;28;20880;-42
2022/01/20 12:32:10;;;;;;;;;;;22.70;38.00;;;;;;6286366;28;19931;-42
2022/01/20 12:35:12;;;;;;;;;;;22.40;37.90;;;;;;6244232;27;19937;-43
2022/01/20 12:38:14;;;;;;;;;;;22.70;38.20;;;;;;6266701;28;19938;-42
2022/01/20 12:41:17;;;;;;;;;;;22.40;37.90;;;;;;6282077;27;19931;-42
2022/01/20 12:44:18;;;;;;;;;;;22.40;37.90;;;;;;6285997;27;19931;-40
2022/01/20 12:47:27;;;;;;;;;;;22.70;38.10;;;;;;6281407;27;19931;-43
2022/01/20 12:50:29;;;;;;;;;;;22.60;38.00;;;;;;6265976;28;19970;-45
2022/01/20 12:53:31;;;;;;;;;;;22.30;37.80;;;;;;6286926;27;19939;-41
2022/01/20 12:56:35;;;;;;;;;;;22.70;38.10;;;;;;6235460;28;20051;-45
2022/01/20 12:59:37;;;;;;;;;;;22.30;37.90;;;;;;6263778;27;19938;-44
2022/01/20 13:02:39;;;;;;;;;;;22.70;38.00;;;;;;6201969;27;19931;-43
2022/01/20 13:05:41;;;;;;;;;;;22.70;38.30;;;;;;6188321;27;19939;-43
2022/01/20 13:08:43;;;;;;;;;;;22.60;38.00;;;;;;6221472;27;19937;-43
2022/01/20 13:11:54;;;;;;;;;;;22.40;38.00;;;;;;6229759;27;19931;-43
2022/01/20 13:14:56;;;;;;;;;;;22.70;38.10;;;;;;6200524;27;19937;-43
2022/01/20 13:18:01;;;;;;;;;;;22.70;38.00;;;;;;6205736;27;19931;-43
2022/01/20 13:21:05;;;;;;;;;;;23.00;38.10;;;;;;6165663;27;20051;-42
2022/01/20 13:24:08;;;;;;;;;;;22.90;38.10;;;;;;6174335;27;20152;-40
2022/01/20 13:27:12;;;;;;;;;;;23.10;38.30;;;;;;6151194;27;19955;-42
2022/01/20 13:30:23;;;;;;;;;;;22.80;37.90;;;;;;6185175;27;19938;-43
2022/01/20 13:33:28;;;;;;;;;;;22.50;38.00;;;;;;6195667;27;20012;-43
2022/01/20 13:36:37;;;;;;;;;;;22.60;38.00;;;;;;6180636;27;19935;-43
2022/01/20 13:39:41;;;;;;;;;;;22.80;38.10;;;;;;6174886;27;21103;-44
2022/01/20 13:44:59;;;;;;;;;;;22.80;38.00;;;;;;6208279;27;20012;-42
2022/01/20 13:46:06;;;;;;;;;;;22.80;38.10;;;;;;6176364;27;20027;-45
2022/01/20 13:49:08;;;;;;;;;;;22.90;38.10;;;;;;6173581;27;19938;-41
2022/01/20 13:52:10;;;;;;;;;;;22.70;38.00;;;;;;6174987;27;21091;-43
2022/01/20 13:55:20;;;;;;;;;;;23.20;38.20;;;;;;6187812;27;19939;-44
2022/01/20 13:58:23;;;;;;;;;;;22.60;37.90;;;;;;6169264;27;20061;-42
2022/01/20 14:01:24;;;;;;;;;;;22.50;37.80;;;;;;6172905;27;20117;-44
2022/01/20 14:04:26;;;;;;;;;;;22.40;37.70;;;;;;6170889;27;19931;-43
2022/01/20 14:07:28;;;;;;;;;;;22.80;37.90;;;;;;6175107;27;19936;-41
2022/01/20 14:10:29;;;;;;;;;;;22.90;38.00;;;;;;6165826;27;19979;-43
2022/01/20 14:13:31;;;;;;;;;;;22.80;38.00;;;;;;6181376;27;19935;-40
2022/01/20 14:16:33;;;;;;;;;;;22.60;37.70;;;;;;6187865;27;21494;-42
2022/01/20 14:19:41;;;;;;;;;;;22.80;37.90;;;;;;6199403;27;19974;-43
2022/01/20 14:22:43;;;;;;;;;;;22.90;38.10;;;;;;6186503;27;19957;-43
2022/01/20 14:25:46;;;;;;;;;;;22.50;37.80;;;;;;6195923;27;20031;-43
2022/01/20 14:28:48;;;;;;;;;;;22.60;37.80;;;;;;6191211;27;19937;-47
2022/01/20 14:31:50;;;;;;;;;;;22.50;37.70;;;;;;6216875;27;20010;-44
2022/01/20 14:34:51;;;;;;;;;;;22.90;37.90;;;;;;6203176;27;19931;-40
2022/01/20 14:37:52;;;;;;;;;;;22.60;37.70;;;;;;6222455;27;19931;-42
2022/01/20 14:40:55;;;;;;;;;;;22.60;37.80;;;;;;6232507;27;20044;-40
2022/01/20 14:43:57;;;;;;;;;;;23.00;37.90;;;;;;6208931;27;19956;-41
2022/01/20 14:46:59;;;;;;;;;;;22.70;37.70;;;;;;6218603;27;21574;-40
2022/01/20 14:50:01;;;;;;;;;;;22.50;37.60;;;;;;6204872;27;22146;-41
2022/01/20 14:53:03;;;;;;;;;;;22.70;37.70;;;;;;6212094;27;20012;-43
2022/01/20 14:56:04;;;;;;;;;;;22.50;37.90;;;;;;6210470;27;19938;-43
2022/01/20 14:59:06;;;;;;;;;;;22.90;37.70;;;;;;6217722;27;19931;-41
2022/01/20 15:02:09;;;;;;;;;;;22.70;37.70;;;;;;6194597;27;19932;-51
2022/01/20 15:05:12;;;;;;;;;;;22.90;37.80;;;;;;6215630;27;19931;-43
2022/01/20 15:08:14;;;;;;;;;;;22.60;37.60;;;;;;6213469;27;19936;-43
2022/01/20 15:11:15;;;;;;;;;;;22.90;37.80;;;;;;6201681;27;19931;-43
2022/01/20 15:14:17;;;;;;;;;;;23.10;37.90;;;;;;6209060;27;20633;-43
2022/01/20 15:17:18;;;;;;;;;;;23.20;37.90;;;;;;6212379;27;20026;-43
2022/01/20 15:20:20;;;;;;;;;;;23.00;37.90;;;;;;6204960;27;19937;-43
2022/01/20 15:23:21;;;;;;;;;;;22.90;37.80;;;;;;6219892;27;19932;-46
2022/01/20 15:26:23;;;;;;;;;;;22.60;37.60;;;;;;6215445;27;20902;-43
2022/01/20 15:29:26;;;;;;;;;;;23.00;37.80;;;;;;6220145;27;21262;-43
2022/01/20 15:32:28;;;;;;;;;;;22.60;37.50;;;;;;6211926;27;21565;-42
2022/01/20 15:35:29;;;;;;;;;;;23.00;37.80;;;;;;6210531;27;21519;-43
2022/01/20 15:38:30;;;;;;;;;;;23.10;37.80;;;;;;6201788;27;20096;-43
2022/01/20 15:41:32;;;;;;;;;;;22.60;37.60;;;;;;6199706;27;20054;-44
2022/01/20 15:44:34;;;;;;;;;;;22.90;37.80;;;;;;6228409;27;21152;-43
2022/01/20 15:47:36;;;;;;;;;;;23.10;37.80;;;;;;6221888;27;19935;-43
2022/01/20 15:50:37;;;;;;;;;;;23.00;37.80;;;;;;6222317;27;21185;-43
2022/01/20 15:53:39;;;;;;;;;;;23.30;37.90;;;;;;6230059;27;20925;-44
2022/01/20 15:56:42;;;;;;;;;;;23.10;37.80;;;;;;6215676;27;20005;-41
2022/01/20 15:59:44;;;;;;;;;;;22.70;37.60;;;;;;6176615;27;19938;-43
2022/01/20 16:02:46;;;;;;;;;;;22.80;37.60;;;;;;6177375;27;20246;-42
2022/01/20 16:05:47;;;;;;;;;;;22.50;37.50;;;;;;6179393;27;19931;-43
2022/01/20 16:08:49;;;;;;;;;;;22.80;37.60;;;;;;6158634;27;19931;-46
2022/01/20 16:11:50;;;;;;;;;;;22.70;37.60;;;;;;6161158;27;20135;-44
2022/01/20 16:14:52;;;;;;;;;;;22.90;37.80;;;;;;6176061;27;19931;-45
2022/01/20 16:17:54;;;;;;;;;;;22.70;37.60;;;;;;6190482;27;19931;-43
2022/01/20 16:20:57;;;;;;;;;;;22.70;37.60;;;;;;6195118;27;19946;-44
2022/01/20 16:23:58;;;;;;;;;;;22.60;37.50;;;;;;6201739;27;19932;-46
2022/01/20 16:26:59;;;;;;;;;;;22.50;37.40;;;;;;6205675;27;19938;-44
2022/01/20 16:30:03;;;;;;;;;;;23.00;37.90;;;;;;6201889;27;21442;-44
2022/01/20 16:33:04;;;;;;;;;;;23.00;37.70;;;;;;6205682;27;20770;-45
2022/01/20 16:36:06;;;;;;;;;;;23.10;37.80;;;;;;6226102;27;22028;-45
2022/01/20 16:39:11;;;;;;;;;;;22.80;38.20;;;;;;6225361;27;21194;-41
2022/01/20 16:42:13;;;;;;;;;;;23.00;38.30;;;;;;6217937;27;19931;-44
2022/01/20 16:45:16;;;;;;;;;;;22.70;37.50;;;;;;6226960;27;19975;-44
2022/01/20 16:48:19;;;;;;;;;;;22.90;37.70;;;;;;6210728;27;21675;-44
2022/01/20 16:51:20;;;;;;;;;;;22.90;37.70;;;;;;6222863;27;19964;-44
2022/01/20 16:54:22;;;;;;;;;;;22.70;37.50;;;;;;6229633;27;20166;-42
2022/01/20 16:57:23;;;;;;;;;;;22.70;37.60;;;;;;6237034;27;20086;-45
2022/01/20 17:00:25;;;;;;;;;;;22.50;37.40;;;;;;6236157;27;21016;-42
2022/01/20 17:03:28;;;;;;;;;;;23.20;37.80;;;;;;6235973;27;19939;-44
2022/01/20 17:06:30;;;;;;;;;;;22.80;37.70;;;;;;6229956;27;20902;-42
2022/01/20 17:09:31;;;;;;;;;;;22.90;37.60;;;;;;6240180;27;19932;-43
2022/01/20 17:12:33;;;;;;;;;;;23.00;37.70;;;;;;6254134;27;19935;-41
2022/01/20 17:15:35;;;;;;;;;;;22.50;37.30;;;;;;6254939;27;19931;-43
2022/01/20 17:18:39;;;;;;;;;;;22.90;37.70;;;;;;6263885;27;19932;-44
2022/01/20 17:21:40;;;;;;;;;;;22.90;37.60;;;;;;6259140;27;20038;-42
2022/01/20 17:24:42;;;;;;;;;;;23.00;37.50;;;;;;6265848;27;20179;-43
2022/01/20 17:27:45;;;;;;;;;;;22.90;37.70;;;;;;6261730;27;19937;-42
2022/01/20 17:30:49;;;;;;;;;;;22.40;37.30;;;;;;6243730;27;20151;-40
2022/01/20 17:33:51;;;;;;;;;;;22.80;37.60;;;;;;6257168;27;20112;-41
2022/01/20 17:36:52;;;;;;;;;;;22.60;37.40;;;;;;6268116;27;19968;-43
2022/01/20 17:39:53;;;;;;;;;;;22.50;37.40;;;;;;6278488;27;19923;-41
2022/01/20 17:42:54;;;;;;;;;;;22.40;37.30;;;;;;6278467;27;20029;-41
2022/01/20 17:45:57;;;;;;;;;;;22.80;37.50;;;;;;6293034;27;19931;-43
2022/01/20 17:48:58;;;;;;;;;;;22.70;37.50;;;;;;6275745;27;21056;-45
2022/01/20 17:52:04;;;;;;;;;;;22.70;37.40;;;;;;6280288;27;19932;-42
2022/01/20 17:55:06;;;;;;;;;;;22.40;37.30;;;;;;6292288;27;19931;-46
2022/01/20 17:58:07;;;;;;;;;;;22.60;37.40;;;;;;6289741;27;20755;-41
2022/01/20 18:01:09;;;;;;;;;;;22.80;37.40;;;;;;6290437;27;20067;-44
2022/01/20 18:04:15;;;;;;;;;;;22.60;37.30;;;;;;6271134;27;19935;-44
2022/01/20 18:07:16;;;;;;;;;;;22.80;37.50;;;;;;6293112;27;19935;-45
2022/01/20 18:10:18;;;;;;;;;;;22.50;37.40;;;;;;6280428;27;19934;-44
2022/01/20 18:13:20;;;;;;;;;;;22.40;37.40;;;;;;6291643;27;21826;-41
2022/01/20 18:16:22;;;;;;;;;;;22.60;37.50;;;;;;6297142;27;20806;-47
2022/01/20 18:19:24;;;;;;;;;;;22.80;37.60;;;;;;6305530;27;19935;-44
2022/01/20 18:22:25;;;;;;;;;;;22.70;37.70;;;;;;6288240;27;20000;-44
2022/01/20 18:25:27;;;;;;;;;;;22.30;37.40;;;;;;6307607;27;20859;-45
2022/01/20 18:28:28;;;;;;;;;;;22.90;37.80;;;;;;6306901;27;20008;-40
2022/01/20 18:31:30;;;;;;;;;;;22.10;37.40;;;;;;6275967;27;20803;-40
2022/01/20 18:34:32;;;;;;;;;;;22.40;37.60;;;;;;6294087;27;19931;-42
2022/01/20 18:37:34;;;;;;;;;;;22.20;37.50;;;;;;6294207;27;20590;-41
2022/01/20 18:40:41;;;;;;;;;;;22.40;37.70;;;;;;6279848;27;19978;-40
2022/01/20 18:43:42;;;;;;;;;;;22.20;37.50;;;;;;6292549;27;20391;-43
2022/01/20 18:46:45;;;;;;;;;;;22.20;37.50;;;;;;6309637;27;19971;-42